Time;durP1;ratioP1;P1;durP2;ratioP2;P2;SDS_P1;SDS_P2;PMS_P1;PMS_P2;Temp;Humidity;BMP_temperature;BMP_pressure;BME280_temperature;BME280_humidity;BME280_pressure;Samples;Min_cycle;Max_cycle;Signal;HPM_P1;HPM_P2
2023/09/01 00:00:21;;;;;;;7.47;2.45;;;;;;;-142.75;100.00;76133.31;5026880;28;20100;-64
2023/09/01 00:02:46;;;;;;;6.63;3.08;;;;;;;-142.75;100.00;76154.97;5026589;28;20025;-64
2023/09/01 00:05:12;;;;;;;10.50;2.97;;;;;;;-142.75;100.00;76168.75;5026552;28;20033;-64
2023/09/01 00:07:37;;;;;;;11.80;3.47;;;;;;;-142.75;100.00;76156.94;5026524;28;20891;-63
2023/09/01 00:10:03;;;;;;;7.32;3.00;;;;;;;-142.75;100.00;76156.94;5026763;28;20030;-64
2023/09/01 00:12:29;;;;;;;7.18;3.08;;;;;;;-142.75;100.00;76166.78;5026639;28;20034;-64
2023/09/01 00:14:54;;;;;;;8.30;3.17;;;;;;;-142.75;100.00;76172.69;5026448;28;20163;-64
2023/09/01 00:17:20;;;;;;;7.97;3.85;;;;;;;-142.75;100.00;76158.91;5026362;28;20029;-64
2023/09/01 00:19:45;;;;;;;6.18;3.10;;;;;;;-142.75;100.00;76162.84;5026561;28;20071;-63
2023/09/01 00:22:11;;;;;;;9.23;3.03;;;;;;;-142.75;100.00;76164.81;5026518;28;20025;-64
2023/09/01 00:24:37;;;;;;;6.68;2.78;;;;;;;-142.75;100.00;76168.75;5027726;28;20080;-64
2023/09/01 00:27:02;;;;;;;8.75;3.38;;;;;;;-142.75;100.00;76153.00;5026320;28;20095;-64
2023/09/01 00:29:33;;;;;;;7.18;3.40;;;;;;;-142.75;100.00;76156.94;5026557;28;20108;-64
2023/09/01 00:31:59;;;;;;;8.05;3.72;;;;;;;-142.75;100.00;76141.19;5026471;28;20029;-64
2023/09/01 00:34:24;;;;;;;11.63;3.67;;;;;;;-142.75;100.00;76162.84;5026226;28;20108;-64
2023/09/01 00:36:50;;;;;;;7.15;3.35;;;;;;;-142.75;100.00;76156.94;5032772;28;20116;-64
2023/09/01 00:39:16;;;;;;;5.97;2.83;;;;;;;-142.75;100.00;76129.38;5026161;28;20025;-64
2023/09/01 00:41:41;;;;;;;9.15;3.55;;;;;;;-142.75;100.00;76121.50;5025717;28;20116;-64
2023/09/01 00:44:08;;;;;;;8.43;4.03;;;;;;;-142.75;100.00;76121.50;5025784;28;20025;-64
2023/09/01 00:46:34;;;;;;;10.25;3.47;;;;;;;-142.75;100.00;76117.56;5024855;28;20026;-64
2023/09/01 00:49:00;;;;;;;7.45;3.63;;;;;;;-142.75;100.00;76133.31;5026168;28;20119;-64
2023/09/01 00:51:27;;;;;;;9.35;3.53;;;;;;;-142.75;100.00;76121.50;5026167;28;20055;-64
2023/09/01 00:53:53;;;;;;;9.02;4.03;;;;;;;-142.75;100.00;76119.53;5024826;28;20045;-64
2023/09/01 00:56:19;;;;;;;7.40;3.83;;;;;;;-142.75;100.00;76115.59;5025908;28;20025;-64
2023/09/01 00:58:45;;;;;;;8.02;3.67;;;;;;;-142.75;100.00;76121.50;5026209;28;20026;-64
2023/09/01 01:01:10;;;;;;;8.55;4.20;;;;;;;-142.75;100.00;76121.50;5026177;28;20079;-64
2023/09/01 01:03:37;;;;;;;8.60;3.88;;;;;;;-142.75;100.00;76113.63;5026167;28;20040;-64
2023/09/01 01:06:20;;;;;;;8.98;4.07;;;;;;;-142.75;100.00;76099.84;5026165;28;20033;-64
2023/09/01 01:09:08;;;;;;;6.82;3.55;;;;;;;-142.75;100.00;76107.72;5026141;28;20034;-64
2023/09/01 01:11:52;;;;;;;8.90;3.78;;;;;;;-142.75;100.00;76097.88;5026293;28;20040;-64
2023/09/01 01:14:34;;;;;;;6.40;3.67;;;;;;;-142.75;100.00;76090.00;5025763;28;20026;-64
2023/09/01 01:17:00;;;;;;;7.93;3.85;;;;;;;-142.75;100.00;76105.75;5025648;28;20041;-64
2023/09/01 01:19:25;;;;;;;10.68;4.18;;;;;;;-142.75;100.00;76099.84;5025820;28;20041;-64
2023/09/01 01:21:58;;;;;;;9.75;3.95;;;;;;;-142.75;100.00;76093.94;5025889;28;20025;-64
2023/09/01 01:24:25;;;;;;;8.73;3.90;;;;;;;-142.75;100.00;76105.75;5025796;28;20489;-64
2023/09/01 01:26:50;;;;;;;11.77;4.22;;;;;;;-142.75;100.00;76111.66;5025896;28;20029;-64
2023/09/01 01:29:16;;;;;;;10.02;4.15;;;;;;;-142.75;100.00;76117.56;5025606;28;20469;-64
2023/09/01 01:31:42;;;;;;;9.77;4.47;;;;;;;-142.75;100.00;76125.44;5025724;28;20033;-64
2023/09/01 01:34:33;;;;;;;10.77;4.75;;;;;;;-142.75;100.00;76125.44;5025667;28;20025;-64
2023/09/01 01:37:09;;;;;;;9.70;3.85;;;;;;;-142.75;100.00;76133.31;5025057;28;20033;-64
2023/09/01 01:39:35;;;;;;;;;;;;;;;-142.75;100.00;76127.41;5026470;28;20366;-64
2023/09/01 01:42:13;;;;;;;10.77;4.07;;;;;;;-142.75;100.00;76135.28;5025712;28;19913;-64
2023/09/01 01:44:43;;;;;;;11.25;3.55;;;;;;;-142.75;100.00;76133.31;5025698;28;20122;-64
2023/09/01 01:47:11;;;;;;;9.65;4.60;;;;;;;-142.75;100.00;76135.28;5029259;28;20033;-65
2023/09/01 01:49:36;;;;;;;8.68;4.38;;;;;;;-142.75;100.00;76139.22;5030940;28;20032;-63
2023/09/01 01:52:02;;;;;;;12.02;4.10;;;;;;;-142.75;100.00;76145.13;5029078;28;20030;-64
2023/09/01 01:54:29;;;;;;;11.70;4.65;;;;;;;-142.75;100.00;76141.19;5028978;28;20032;-64
2023/09/01 01:56:54;;;;;;;11.02;4.60;;;;;;;-142.75;100.00;76156.94;5028999;28;20118;-63
2023/09/01 01:59:19;;;;;;;12.98;5.43;;;;;;;-142.75;100.00;76154.97;5027586;28;20125;-64
2023/09/01 02:01:45;;;;;;;11.48;4.22;;;;;;;-142.75;100.00;76166.78;5029006;28;20158;-64
2023/09/01 02:04:10;;;;;;;8.00;3.72;;;;;;;-142.75;100.00;76139.22;5028776;28;20026;-64
2023/09/01 02:06:35;;;;;;;8.68;4.07;;;;;;;-142.75;100.00;76141.19;5028809;28;20025;-64
2023/09/01 02:09:03;;;;;;;13.23;4.20;;;;;;;-142.75;100.00;76139.22;5028503;28;20200;-64
2023/09/01 02:11:28;;;;;;;11.57;4.57;;;;;;;-142.75;100.00;76129.38;5028859;28;20052;-63
2023/09/01 02:13:53;;;;;;;7.95;4.25;;;;;;;-142.75;100.00;76131.34;5028620;28;20064;-64
2023/09/01 02:16:19;;;;;;;12.45;4.32;;;;;;;-142.75;100.00;76133.31;5028764;28;20400;-63
2023/09/01 02:18:44;;;;;;;11.32;5.00;;;;;;;-142.75;100.00;76141.19;5028482;28;20187;-64
2023/09/01 02:21:17;;;;;;;8.38;4.65;;;;;;;-142.75;100.00;76129.38;5028620;28;20026;-64
2023/09/01 02:23:43;;;;;;;11.90;5.18;;;;;;;-142.75;100.00;76137.25;5028816;28;20040;-63
2023/09/01 02:26:08;;;;;;;14.77;4.47;;;;;;;-142.75;100.00;76135.28;5028180;28;20017;-64
2023/09/01 02:28:33;;;;;;;8.73;4.28;;;;;;;-142.75;100.00;76131.34;5028597;28;20441;-63
2023/09/01 02:31:07;;;;;;;9.60;5.15;;;;;;;-142.75;100.00;76117.56;5028471;28;20559;-64
2023/09/01 02:33:32;;;;;;;11.18;4.97;;;;;;;-142.75;100.00;76127.41;5028595;28;20029;-63
2023/09/01 02:36:21;;;;;;;12.75;5.00;;;;;;;-142.75;100.00;76111.66;5027977;28;20047;-64
2023/09/01 02:38:46;;;;;;;12.65;5.05;;;;;;;-142.75;100.00;76127.41;5028121;28;20025;-64
2023/09/01 02:41:12;;;;;;;12.65;4.72;;;;;;;-142.75;100.00;76113.63;5028076;28;20032;-63
2023/09/01 02:43:37;;;;;;;12.52;5.60;;;;;;;-142.75;100.00;76113.63;5028087;28;20025;-63
2023/09/01 02:46:04;;;;;;;11.48;4.93;;;;;;;-142.75;100.00;76117.56;5028219;28;20021;-64
2023/09/01 02:48:30;;;;;;;11.90;5.38;;;;;;;-142.75;100.00;76109.69;5027755;28;20052;-64
2023/09/01 02:50:55;;;;;;;13.50;5.80;;;;;;;-142.75;100.00;76101.81;5028027;28;20496;-63
2023/09/01 02:53:20;;;;;;;11.73;4.93;;;;;;;-142.75;100.00;76103.78;5028200;28;20114;-64
2023/09/01 02:55:46;;;;;;;13.40;5.47;;;;;;;-142.75;100.00;76103.78;5027616;28;20025;-64
2023/09/01 02:58:11;;;;;;;12.07;5.38;;;;;;;-142.75;100.00;76095.91;5026607;28;20017;-64
2023/09/01 03:00:37;;;;;;;9.65;5.70;;;;;;;-142.75;100.00;76091.97;5028156;28;20032;-64
2023/09/01 03:03:02;;;;;;;15.27;5.80;;;;;;;-142.75;100.00;76091.97;5027626;28;20017;-64
2023/09/01 03:05:28;;;;;;;12.43;5.38;;;;;;;-142.75;100.00;76078.19;5027431;28;20017;-64
2023/09/01 03:07:53;;;;;;;13.18;6.55;;;;;;;-142.75;100.00;76095.91;5027521;28;20531;-63
2023/09/01 03:10:19;;;;;;;15.00;5.93;;;;;;;-142.75;100.00;76088.03;5027492;28;20025;-63
2023/09/01 03:12:44;;;;;;;11.75;5.70;;;;;;;-142.75;100.00;76090.00;5027817;28;20029;-64
2023/09/01 03:15:10;;;;;;;10.40;5.57;;;;;;;-142.75;100.00;76086.06;5027387;28;20071;-63
2023/09/01 03:17:35;;;;;;;11.98;5.53;;;;;;;-142.75;100.00;76086.06;5027395;28;20497;-63
2023/09/01 03:20:04;;;;;;;8.88;5.88;;;;;;;-142.75;100.00;76119.53;5029499;28;20040;-64
2023/09/01 03:22:29;;;;;;;10.68;6.20;;;;;;;-142.75;100.00;76109.69;5027715;28;20091;-64
2023/09/01 03:24:54;;;;;;;13.10;6.47;;;;;;;-142.75;100.00;76115.59;5027412;28;20546;-63
2023/09/01 03:27:21;;;;;;;11.50;5.72;;;;;;;-142.75;100.00;76105.75;5027106;28;20049;-64
2023/09/01 03:29:50;;;;;;;10.57;5.28;;;;;;;-142.75;100.00;76105.75;5027287;28;20473;-64
2023/09/01 03:32:15;;;;;;;12.60;5.63;;;;;;;-142.75;100.00;76099.84;5027092;28;20026;-64
2023/09/01 03:34:40;;;;;;;13.48;6.72;;;;;;;-142.75;100.00;76091.97;5026814;28;20029;-63
2023/09/01 03:37:08;;;;;;;8.40;5.68;;;;;;;-142.75;100.00;76088.03;5027314;28;20028;-64
2023/09/01 03:39:34;;;;;;;11.40;6.32;;;;;;;-142.75;100.00;76078.19;5027362;28;20099;-64
2023/09/01 03:41:59;;;;;;;15.27;6.68;;;;;;;-142.75;100.00;76082.13;5026999;28;20505;-63
2023/09/01 03:44:24;;;;;;;13.60;7.18;;;;;;;-142.75;100.00;76062.47;5027095;28;20101;-63
2023/09/01 03:46:49;;;;;;;13.13;5.93;;;;;;;-142.75;100.00;76062.47;5026390;28;20147;-64
2023/09/01 03:49:15;;;;;;;11.80;5.90;;;;;;;-142.75;100.00;76064.44;5026921;28;20025;-64
2023/09/01 03:51:40;;;;;;;12.32;5.78;;;;;;;-142.75;100.00;76066.41;5027120;28;20017;-63
2023/09/01 03:54:05;;;;;;;11.93;5.85;;;;;;;-142.75;100.00;76066.41;5026947;28;20043;-64
2023/09/01 03:56:31;;;;;;;12.73;5.82;;;;;;;-142.75;100.00;76072.31;5026423;28;20022;-64
2023/09/01 03:58:56;;;;;;;16.40;6.63;;;;;;;-142.75;100.00;76070.34;5026819;28;21746;-63
2023/09/01 04:01:21;;;;;;;11.90;6.20;;;;;;;-142.75;100.00;76066.41;5026571;28;20504;-64
2023/09/01 04:03:47;;;;;;;11.43;5.97;;;;;;;-142.75;100.00;76046.72;5026996;28;20619;-64
2023/09/01 04:06:13;;;;;;;13.25;5.95;;;;;;;-142.75;100.00;76058.53;5026261;28;20025;-64
2023/09/01 04:08:38;;;;;;;13.25;6.65;;;;;;;-142.75;100.00;76062.47;5026647;28;20032;-63
2023/09/01 04:11:04;;;;;;;13.48;6.60;;;;;;;-142.75;100.00;76066.41;5026360;28;20017;-63
2023/09/01 04:13:34;;;;;;;15.23;7.13;;;;;;;-142.75;100.00;76062.47;5026572;28;20481;-63
2023/09/01 04:16:00;;;;;;;14.05;7.07;;;;;;;-142.75;100.00;76062.47;5026051;28;20524;-64
2023/09/01 04:18:25;;;;;;;11.43;5.97;;;;;;;-142.75;100.00;76066.41;5026413;28;20022;-64
2023/09/01 04:20:53;;;;;;;13.65;6.63;;;;;;;-142.75;100.00;76062.47;5026572;28;20028;-64
2023/09/01 04:23:19;;;;;;;14.15;7.28;;;;;;;-142.75;100.00;76062.47;5026329;28;20107;-64
2023/09/01 04:25:48;;;;;;;14.00;5.75;;;;;;;-142.75;100.00;76056.56;5026050;28;20083;-64
2023/09/01 04:28:14;;;;;;;12.55;6.07;;;;;;;-142.75;100.00;76070.34;5026205;28;20167;-64
2023/09/01 04:30:40;;;;;;;12.15;6.03;;;;;;;-142.75;100.00;76066.41;5034692;28;20586;-63
2023/09/01 04:33:05;;;;;;;10.68;6.05;;;;;;;-142.75;100.00;76060.50;5026410;28;20029;-63
2023/09/01 04:35:31;;;;;;;12.43;6.05;;;;;;;-142.75;100.00;76066.41;5026027;28;20017;-64
2023/09/01 04:37:57;;;;;;;11.63;5.95;;;;;;;-142.75;100.00;76058.53;5026596;28;20096;-64
2023/09/01 04:40:22;;;;;;;11.95;6.10;;;;;;;-142.75;100.00;76062.47;5026351;28;20556;-63
2023/09/01 04:42:48;;;;;;;13.27;6.35;;;;;;;-142.75;100.00;76058.53;5026012;28;20029;-64
2023/09/01 04:45:13;;;;;;;12.38;6.90;;;;;;;-142.75;100.00;76062.47;5025926;28;20025;-63
2023/09/01 04:47:39;;;;;;;14.98;6.70;;;;;;;-142.75;100.00;76062.47;5026003;28;20397;-61
2023/09/01 04:50:04;;;;;;;12.43;6.15;;;;;;;-142.75;100.00;76064.44;5026090;28;20032;-63
2023/09/01 04:52:30;;;;;;;14.88;6.85;;;;;;;-142.75;100.00;76076.22;5026071;28;20029;-63
2023/09/01 04:54:55;;;;;;;11.25;6.90;;;;;;;-142.75;100.00;76066.41;5025720;28;20048;-63
2023/09/01 04:57:20;;;;;;;13.35;6.10;;;;;;;-142.75;100.00;76068.38;5025845;28;20108;-64
2023/09/01 04:59:46;;;;;;;17.40;6.35;;;;;;;-142.75;100.00;76074.25;5025979;28;20034;-63
2023/09/01 05:02:12;;;;;;;13.15;7.10;;;;;;;-142.75;100.00;76072.31;5026027;28;20026;-64
2023/09/01 05:04:37;;;;;;;14.00;6.78;;;;;;;-142.75;100.00;76068.38;5026206;28;20119;-64
2023/09/01 05:07:02;;;;;;;11.20;5.78;;;;;;;-142.75;100.00;76058.53;5025071;28;20052;-63
2023/09/01 05:09:28;;;;;;;12.15;6.57;;;;;;;-142.75;100.00;76042.78;5025313;28;20614;-63
2023/09/01 05:11:53;;;;;;;11.95;5.95;;;;;;;-142.75;100.00;76044.75;5025434;28;20022;-63
2023/09/01 05:14:18;;;;;;;10.23;5.90;;;;;;;-142.75;100.00;76052.63;5027912;28;20175;-64
2023/09/01 05:16:44;;;;;;;13.38;5.93;;;;;;;-142.75;100.00;76060.50;5024972;28;20400;-64
2023/09/01 05:19:09;;;;;;;10.27;5.93;;;;;;;-142.75;100.00;76072.31;5025306;28;20501;-64
2023/09/01 05:21:34;;;;;;;13.95;5.72;;;;;;;-142.75;100.00;76066.41;5026327;28;20385;-64
2023/09/01 05:23:59;;;;;;;13.15;6.38;;;;;;;-142.75;100.00;76076.22;5029010;28;20509;-64
2023/09/01 05:26:25;;;;;;;12.75;6.38;;;;;;;-142.75;100.00;76070.34;5027486;28;20497;-64
2023/09/01 05:28:50;;;;;;;12.93;6.22;;;;;;;-142.75;100.00;76058.53;5028732;28;20064;-64
2023/09/01 05:31:15;;;;;;;14.80;7.13;;;;;;;-142.75;100.00;76066.41;5028826;28;20053;-64
2023/09/01 05:33:41;;;;;;;14.95;7.18;;;;;;;-142.75;100.00;76076.22;5029137;28;20607;-63
2023/09/01 05:36:06;;;;;;;11.35;6.35;;;;;;;-142.75;100.00;76066.41;5028962;28;20029;-63
2023/09/01 05:38:31;;;;;;;11.15;6.40;;;;;;;-142.75;100.00;76070.34;5028955;28;20032;-64
2023/09/01 05:41:01;;;;;;;13.30;6.93;;;;;;;-142.75;100.00;76078.19;5028453;28;20032;-64
2023/09/01 05:43:27;;;;;;;10.27;6.03;;;;;;;-142.75;100.00;76066.41;5028733;28;20032;-63
2023/09/01 05:45:52;;;;;;;11.35;6.60;;;;;;;-142.75;100.00;76070.34;5028408;28;20025;-64
2023/09/01 05:48:18;;;;;;;12.38;6.25;;;;;;;-142.75;100.00;76062.47;5028783;28;20028;-64
2023/09/01 05:50:44;;;;;;;12.73;6.32;;;;;;;-142.75;100.00;76066.41;5028470;28;20092;-63
2023/09/01 05:53:10;;;;;;;14.48;6.93;;;;;;;-142.75;100.00;76056.56;5028279;28;20037;-63
2023/09/01 05:55:36;;;;;;;11.32;5.97;;;;;;;-142.75;100.00;76048.69;5025950;28;20451;-64
2023/09/01 05:58:02;;;;;;;13.30;6.35;;;;;;;-142.75;100.00;76068.38;5026715;28;20104;-64
2023/09/01 06:00:28;;;;;;;15.93;6.97;;;;;;;-142.75;100.00;76066.41;5028265;28;20739;-64
2023/09/01 06:02:54;;;;;;;12.63;6.10;;;;;;;-142.75;100.00;76060.50;5028124;28;20029;-64
2023/09/01 06:05:20;;;;;;;10.77;6.18;;;;;;;-142.75;100.00;76058.53;5028415;28;20041;-64
2023/09/01 06:07:45;;;;;;;13.75;6.13;;;;;;;-142.75;100.00;76054.59;5028305;28;20507;-64
2023/09/01 06:10:11;;;;;;;13.40;6.35;;;;;;;-142.75;100.00;76040.81;5026403;28;20671;-63
2023/09/01 06:12:36;;;;;;;12.25;6.53;;;;;;;-142.75;100.00;76046.72;5027609;28;20033;-64
2023/09/01 06:15:02;;;;;;;12.13;6.72;;;;;;;-142.75;100.00;76046.72;5027629;28;20072;-64
2023/09/01 06:17:27;;;;;;;13.05;6.75;;;;;;;-142.75;100.00;76060.50;5028013;28;20022;-64
2023/09/01 06:19:52;;;;;;;16.70;7.07;;;;;;;-142.75;100.00;76050.66;5028025;28;20029;-64
2023/09/01 06:22:18;;;;;;;14.55;6.25;;;;;;;-142.75;100.00;76058.53;5027903;28;20037;-63
2023/09/01 06:24:43;;;;;;;11.65;6.22;;;;;;;-142.75;100.00;76052.63;5028298;28;20029;-64
2023/09/01 06:27:08;;;;;;;10.70;6.15;;;;;;;-142.75;100.00;76062.47;5025004;28;20061;-63
2023/09/01 06:29:34;;;;;;;10.43;5.60;;;;;;;-142.75;100.00;76052.63;5027197;28;20022;-64
2023/09/01 06:31:59;;;;;;;14.80;5.82;;;;;;;-142.75;100.00;76060.50;5027521;28;20124;-64
2023/09/01 06:34:24;;;;;;;11.45;5.90;;;;;;;-142.75;100.00;76062.47;5025903;28;20033;-63
2023/09/01 06:36:50;;;;;;;13.48;6.63;;;;;;;-142.75;100.00;76060.50;5024758;28;20025;-64
2023/09/01 06:39:16;;;;;;;9.63;5.97;;;;;;;-142.75;100.00;76064.44;5026561;28;20052;-64
2023/09/01 06:41:42;;;;;;;10.65;6.05;;;;;;;-142.75;100.00;76066.41;5024301;28;20044;-64
2023/09/01 06:44:07;;;;;;;15.35;5.97;;;;;;;-142.75;100.00;76064.44;5027448;28;20477;-64
2023/09/01 06:46:32;;;;;;;10.40;6.00;;;;;;;-142.75;100.00;76058.53;5027296;28;20036;-64
2023/09/01 06:48:58;;;;;;;10.70;6.22;;;;;;;-142.75;100.00;76058.53;5027200;28;20029;-63
2023/09/01 06:51:23;;;;;;;16.92;6.93;;;;;;;-142.75;100.00;76054.59;5027085;28;20029;-64
2023/09/01 06:53:49;;;;;;;13.32;6.03;;;;;;;-142.75;100.00;76048.69;5027255;28;20107;-64
2023/09/01 06:56:14;;;;;;;12.68;6.00;;;;;;;-142.75;100.00;76038.84;5027063;28;20055;-64
2023/09/01 06:58:39;;;;;;;12.38;6.25;;;;;;;-142.75;100.00;76027.03;5027422;28;20029;-64
2023/09/01 07:01:09;;;;;;;12.82;6.10;;;;;;;-142.75;100.00;76007.34;5027184;28;20029;-64
2023/09/01 07:03:34;;;;;;;11.40;6.18;;;;;;;-142.75;100.00;76007.34;5027317;28;20018;-64
2023/09/01 07:06:00;;;;;;;11.02;5.95;;;;;;;-142.75;100.00;76021.13;5022975;28;20515;-64
2023/09/01 07:08:28;;;;;;;13.55;6.15;;;;;;;-142.75;100.00;76007.34;5026750;28;20565;-64
2023/09/01 07:10:59;;;;;;;14.18;6.35;;;;;;;-142.75;100.00;75985.69;5033939;28;20020;-64
2023/09/01 07:13:25;;;;;;;11.85;6.10;;;;;;;-142.75;100.00;75979.78;5026078;28;20083;-64
2023/09/01 07:15:50;;;;;;;11.10;5.65;;;;;;;-142.75;100.00;75983.72;5026888;28;20025;-64
2023/09/01 07:18:16;;;;;;;10.18;5.75;;;;;;;-142.75;100.00;75995.53;5026891;28;20030;-63
2023/09/01 07:20:41;;;;;;;12.73;6.20;;;;;;;-142.75;100.00;75985.69;5026941;28;20017;-63
2023/09/01 07:23:06;;;;;;;10.23;5.88;;;;;;;-142.75;100.00;75987.66;5026886;28;20029;-64
2023/09/01 07:25:32;;;;;;;11.10;5.65;;;;;;;-142.75;100.00;75981.75;5026310;28;20485;-63
2023/09/01 07:27:57;;;;;;;10.30;5.72;;;;;;;-142.75;100.00;75993.56;5026617;28;20083;-63
2023/09/01 07:30:22;;;;;;;11.68;6.20;;;;;;;-142.75;100.00;75999.47;5026409;28;20029;-63
2023/09/01 07:32:48;;;;;;;14.00;5.38;;;;;;;-142.75;100.00;75989.63;5026130;28;20124;-64
2023/09/01 07:35:13;;;;;;;8.40;4.85;;;;;;;-142.75;100.00;75987.66;5023806;28;20021;-64
2023/09/01 07:37:38;;;;;;;10.27;5.47;;;;;;;-142.75;100.00;75969.94;5030982;28;20024;-62
2023/09/01 07:40:04;;;;;;;11.23;5.40;;;;;;;-142.75;100.00;75967.97;5028571;28;20405;-63
2023/09/01 07:42:30;;;;;;;12.18;5.60;;;;;;;-142.75;100.00;75971.91;5025860;28;20302;-63
2023/09/01 07:44:56;;;;;;;11.20;5.03;;;;;;;-142.75;100.00;75977.81;5026491;28;20600;-63
2023/09/01 07:47:21;;;;;;;12.77;5.85;;;;;;;-142.75;100.00;75985.69;5026026;28;20115;-63
2023/09/01 07:49:46;;;;;;;12.00;5.88;;;;;;;-142.75;100.00;75977.81;5024806;28;20114;-63
2023/09/01 07:52:12;;;;;;;12.70;6.15;;;;;;;-142.75;100.00;75971.91;5024647;28;20025;-63
2023/09/01 07:54:37;;;;;;;9.73;5.57;;;;;;;-142.75;100.00;75979.78;5022341;28;20052;-63
2023/09/01 07:57:03;;;;;;;10.23;5.68;;;;;;;-142.75;100.00;75973.88;5023633;28;21945;-64
2023/09/01 07:59:28;;;;;;;11.27;5.78;;;;;;;-142.75;100.00;75967.97;5017303;28;20114;-63
2023/09/01 08:01:53;;;;;;;14.43;6.25;;;;;;;-142.75;100.00;75969.94;5023590;28;20049;-63
2023/09/01 08:04:19;;;;;;;13.95;5.88;;;;;;;-142.75;100.00;75987.66;5019623;28;20060;-63
2023/09/01 08:06:46;;;;;;;10.48;5.97;;;;;;;-142.75;100.00;75987.66;5021408;28;20025;-62
2023/09/01 08:09:12;;;;;;;11.43;5.68;;;;;;;-142.75;100.00;75985.69;5024640;28;20021;-63
2023/09/01 08:11:37;;;;;;;12.43;6.32;;;;;;;-142.75;100.00;75977.81;5024686;28;20534;-63
2023/09/01 08:14:02;;;;;;;11.88;5.97;;;;;;;-142.75;100.00;75971.91;5023896;28;20025;-63
2023/09/01 08:16:28;;;;;;;11.13;5.30;;;;;;;-142.75;100.00;75979.78;5022833;28;20136;-63
2023/09/01 08:18:53;;;;;;;14.05;7.05;;;;;;;-142.75;100.00;75973.88;5023399;28;20562;-63
2023/09/01 08:21:18;;;;;;;12.13;6.15;;;;;;;-142.75;100.00;75971.91;5023160;28;20025;-63
2023/09/01 08:23:46;;;;;;;11.88;5.88;;;;;;;-142.75;100.00;75975.84;5022851;28;20032;-62
2023/09/01 08:26:11;;;;;;;13.85;6.90;;;;;;;-142.75;100.00;75969.94;5024063;28;20103;-62
2023/09/01 08:28:37;;;;;;;16.73;6.65;;;;;;;-142.75;100.00;75981.75;5025433;28;20520;-63
2023/09/01 08:31:03;;;;;;;18.23;6.80;;;;;;;-142.75;100.00;75973.88;5024709;28;20025;-62
2023/09/01 08:33:29;;;;;;;11.60;6.35;;;;;;;-142.75;100.00;75983.72;5025931;28;20021;-62
2023/09/01 08:35:54;;;;;;;12.02;6.43;;;;;;;-142.75;100.00;75971.91;5025065;28;20113;-62
2023/09/01 08:38:19;;;;;;;13.82;7.13;;;;;;;-142.75;100.00;75962.09;5020978;28;20025;-63
2023/09/01 08:40:45;;;;;;;13.75;7.13;;;;;;;-142.75;100.00;75960.13;5028482;28;20022;-63
2023/09/01 08:43:11;;;;;;;12.27;6.20;;;;;;;-142.75;100.00;75956.19;5024653;28;20088;-63
2023/09/01 08:45:38;;;;;;;14.63;7.15;;;;;;;-142.75;100.00;75950.28;5023729;28;20013;-63
2023/09/01 08:48:04;;;;;;;14.45;6.45;;;;;;;-142.75;100.00;75948.31;5023391;28;20030;-63
2023/09/01 08:50:30;;;;;;;11.32;7.05;;;;;;;-142.75;100.00;75940.44;5019277;28;20036;-63
2023/09/01 08:52:56;;;;;;;14.98;7.05;;;;;;;-142.75;100.00;75940.44;5022093;28;20032;-63
2023/09/01 08:55:21;;;;;;;10.05;6.68;;;;;;;-142.75;100.00;75938.47;5023134;28;20033;-63
2023/09/01 08:57:48;;;;;;;14.27;7.03;;;;;;;-142.75;100.00;75928.63;5028643;28;20109;-63
2023/09/01 09:00:13;;;;;;;14.30;7.03;;;;;;;-142.75;100.00;75930.59;5028850;28;20028;-62
2023/09/01 09:02:43;;;;;;;12.90;6.20;;;;;;;-142.75;100.00;75932.56;5030322;28;20025;-63
2023/09/01 09:05:11;;;;;;;12.25;7.20;;;;;;;-142.75;100.00;75946.34;5032110;28;20021;-63
2023/09/01 09:07:37;;;;;;;15.02;7.57;;;;;;;-142.75;100.00;75944.38;5027438;28;20029;-63
2023/09/01 09:10:05;;;;;;;11.95;7.13;;;;;;;-142.75;100.00;75940.44;5029705;28;20045;-63
2023/09/01 09:12:34;;;;;;;12.55;7.40;;;;;;;-142.75;100.00;75936.50;5033551;28;20056;-62
2023/09/01 09:15:00;;;;;;;12.30;7.10;;;;;;;-142.75;100.00;75956.19;5029225;28;20064;-63
2023/09/01 09:17:44;;;;;;;15.55;7.32;;;;;;;-142.75;100.00;75936.50;5027733;28;20049;-62
2023/09/01 09:20:14;;;;;;;14.20;7.38;;;;;;;-142.75;100.00;75942.41;5027740;28;20055;-63
2023/09/01 09:22:56;;;;;;;14.88;7.43;;;;;;;-142.75;100.00;75948.31;5028674;28;20076;-63
2023/09/01 09:25:25;;;;;;;12.25;7.50;;;;;;;-142.75;100.00;75952.25;5035655;28;20033;-61
2023/09/01 09:27:51;;;;;;;14.77;8.13;;;;;;;-142.75;100.00;75969.94;5026587;28;20052;-62
2023/09/01 09:30:17;;;;;;;16.13;8.27;;;;;;;-142.75;100.00;75966.00;5027094;28;20520;-63
2023/09/01 09:32:42;;;;;;;16.08;9.13;;;;;;;-142.75;100.00;75967.97;5027803;28;20029;-64
2023/09/01 09:35:10;;;;;;;16.35;8.20;;;;;;;-142.75;100.00;75954.22;5031311;28;20195;-63
2023/09/01 09:37:38;;;;;;;15.85;9.00;;;;;;;-142.75;100.00;75950.28;5027614;28;20389;-63
2023/09/01 09:40:14;;;;;;;12.13;7.85;;;;;;;-142.75;100.00;75946.34;5032756;28;20017;-63
2023/09/01 09:42:43;;;;;;;15.55;8.40;;;;;;;-142.75;100.00;75944.38;5027323;28;20082;-63
2023/09/01 09:45:24;;;;;;;14.05;8.32;;;;;;;-142.75;100.00;75928.63;5027768;28;20513;-61
2023/09/01 09:47:50;;;;;;;13.35;8.23;;;;;;;-142.75;100.00;75922.72;5028905;28;20107;-62
2023/09/01 09:50:17;;;;;;;14.73;9.05;;;;;;;-142.75;100.00;75924.69;5032528;28;20086;-62
2023/09/01 09:52:48;;;;;;;16.92;9.65;;;;;;;-142.75;100.00;75922.72;5039320;28;20057;-63
2023/09/01 09:55:21;;;;;;;13.48;8.98;;;;;;;-142.75;100.00;75910.91;5025004;28;20717;-63
2023/09/01 09:57:49;;;;;;;15.45;9.15;;;;;;;-142.75;100.00;75912.88;5026226;28;20048;-63
2023/09/01 10:00:15;;;;;;;13.05;8.32;;;;;;;-142.75;100.00;75910.91;5030188;28;20033;-62
2023/09/01 10:02:47;;;;;;;14.57;9.50;;;;;;;-142.75;100.00;75903.03;5027261;28;20025;-63
2023/09/01 10:05:15;;;;;;;13.20;8.40;;;;;;;-142.75;100.00;75905.00;5025899;28;20036;-63
2023/09/01 10:07:41;;;;;;;16.75;9.88;;;;;;;-142.75;100.00;75930.59;5025523;28;20025;-61
2023/09/01 10:10:08;;;;;;;13.63;8.82;;;;;;;-142.75;100.00;75924.69;5027412;28;20018;-63
2023/09/01 10:12:34;;;;;;;14.40;8.60;;;;;;;-142.75;100.00;75938.47;5027576;28;20037;-63
2023/09/01 10:15:03;;;;;;;15.75;8.40;;;;;;;-142.75;100.00;75930.59;5026630;28;20477;-63
2023/09/01 10:17:32;;;;;;;13.77;8.02;;;;;;;-142.75;100.00;75918.78;5024739;28;20049;-62
2023/09/01 10:20:00;;;;;;;13.52;8.05;;;;;;;-142.75;100.00;75924.69;5027441;28;20087;-63
2023/09/01 10:22:25;;;;;;;12.95;8.23;;;;;;;-142.75;100.00;75914.84;5027109;28;20037;-62
2023/09/01 10:25:15;;;;;;;13.18;7.57;;;;;;;-142.75;100.00;75906.97;5027454;28;20033;-62
2023/09/01 10:28:03;;;;;;;14.35;8.20;;;;;;;-142.75;100.00;75912.88;5025609;28;20025;-63
2023/09/01 10:30:33;;;;;;;16.27;8.30;;;;;;;-142.75;100.00;75936.50;5026804;28;20159;-62
2023/09/01 10:33:13;;;;;;;14.10;8.57;;;;;;;-142.75;100.00;75928.63;5033094;28;20022;-62
2023/09/01 10:35:53;;;;;;;14.80;8.10;;;;;;;-142.75;100.00;75916.81;5026230;28;20082;-62
2023/09/01 10:38:20;;;;;;;12.88;7.03;;;;;;;-142.75;100.00;75916.81;5026757;28;20025;-63
2023/09/01 10:40:53;;;;;;;12.93;8.32;;;;;;;-142.75;100.00;75932.56;5028467;28;20017;-62
2023/09/01 10:43:41;;;;;;;13.32;7.32;;;;;;;-142.75;100.00;75912.88;5026626;28;20027;-62
2023/09/01 10:46:12;;;;;;;10.90;7.18;;;;;;;-142.75;100.00;75918.78;5027314;28;20041;-62
2023/09/01 10:48:48;;;;;;;9.57;6.43;;;;;;;-142.75;100.00;75912.88;5030226;28;20044;-62
2023/09/01 10:51:18;;;;;;;12.35;7.38;;;;;;;-142.75;100.00;75891.22;5025753;28;20017;-62
2023/09/01 10:53:43;;;;;;;14.63;8.52;;;;;;;-142.75;100.00;75877.44;5027088;28;20033;-62
2023/09/01 10:56:11;;;;;;;11.75;7.25;;;;;;;-142.75;100.00;75885.31;5027263;28;20032;-62
2023/09/01 10:58:56;;;;;;;13.98;8.32;;;;;;;-142.75;100.00;75873.50;5027694;28;20029;-62
2023/09/01 11:01:24;;;;;;;16.33;8.10;;;;;;;-142.75;100.00;75881.38;5035224;28;20029;-63